createdAt,value
2018-08-09T00:01:52.980Z,8.10
2018-08-09T00:04:22.475Z,8.03
2018-08-09T00:06:52.008Z,8.63
2018-08-09T00:09:21.501Z,8.80
2018-08-09T00:11:51.066Z,8.43
2018-08-09T00:14:20.587Z,8.77
2018-08-09T00:16:50.115Z,9.00
2018-08-09T00:19:19.625Z,8.80
2018-08-09T00:21:49.162Z,8.50
2018-08-09T00:24:18.656Z,8.53
2018-08-09T00:26:48.160Z,8.67
2018-08-09T00:29:17.667Z,8.77
2018-08-09T00:31:47.171Z,9.83
2018-08-09T00:34:16.665Z,8.33
2018-08-09T00:36:46.149Z,10.60
2018-08-09T00:39:15.669Z,10.10
2018-08-09T00:41:45.200Z,10.17
2018-08-09T00:44:14.717Z,10.53
2018-08-09T00:46:44.252Z,9.10
2018-08-09T00:49:13.725Z,10.17
2018-08-09T00:51:43.282Z,10.10
2018-08-09T00:54:12.800Z,10.63
2018-08-09T00:56:42.293Z,11.40
2018-08-09T00:59:11.808Z,11.13
2018-08-09T01:01:41.380Z,11.23
2018-08-09T01:04:10.914Z,12.73
2018-08-09T01:06:40.512Z,13.10
2018-08-09T01:09:13.506Z,13.20
2018-08-09T01:11:43.151Z,11.93
2018-08-09T01:14:12.690Z,12.13
2018-08-09T01:16:42.209Z,11.77
2018-08-09T01:19:11.701Z,12.47
2018-08-09T01:21:41.252Z,12.00
2018-08-09T01:24:10.747Z,12.43
2018-08-09T01:26:40.781Z,12.27
2018-08-09T01:29:10.311Z,11.97
2018-08-09T01:31:39.988Z,12.37
2018-08-09T01:34:10.537Z,11.83
2018-08-09T01:36:40.156Z,13.30
2018-08-09T01:39:12.813Z,12.27
2018-08-09T01:42:51.054Z,11.80
2018-08-09T01:45:20.539Z,12.43
2018-08-09T01:47:50.068Z,13.03
2018-08-09T01:50:19.588Z,12.90
2018-08-09T01:52:49.174Z,12.00
2018-08-09T01:55:18.661Z,13.07
2018-08-09T01:57:48.217Z,12.23
2018-08-09T02:00:17.730Z,13.97
2018-08-09T02:02:47.228Z,13.37
2018-08-09T02:05:16.735Z,16.30
2018-08-09T02:07:46.645Z,14.40
2018-08-09T02:10:16.145Z,15.60
2018-08-09T02:12:45.683Z,14.17
2018-08-09T02:15:15.239Z,14.40
2018-08-09T02:17:44.760Z,13.33
2018-08-09T02:20:14.288Z,13.40
2018-08-09T02:22:43.965Z,14.60
2018-08-09T02:25:13.433Z,14.67
2018-08-09T02:27:42.996Z,13.60
2018-08-09T02:30:12.589Z,12.80
2018-08-09T02:32:42.093Z,12.63
2018-08-09T02:35:11.681Z,13.57
2018-08-09T02:37:41.234Z,13.10
2018-08-09T02:40:10.750Z,13.20
2018-08-09T02:42:40.211Z,13.90
2018-08-09T02:45:09.856Z,13.20
2018-08-09T02:47:39.398Z,12.43
2018-08-09T02:50:08.951Z,12.70
2018-08-09T02:52:38.464Z,15.70
2018-08-09T02:55:08.092Z,15.37
2018-08-09T02:57:37.608Z,16.83
2018-08-09T03:00:07.610Z,17.47
2018-08-09T03:02:37.154Z,16.83
2018-08-09T03:05:06.742Z,15.07
2018-08-09T03:07:36.273Z,14.20
2018-08-09T03:10:05.920Z,14.90
2018-08-09T03:12:35.441Z,15.70
2018-08-09T03:15:05.267Z,15.37
2018-08-09T03:17:34.792Z,17.80
2018-08-09T03:20:04.342Z,16.97
2018-08-09T03:22:33.876Z,15.60
2018-08-09T03:25:03.406Z,16.43
2018-08-09T03:27:33.020Z,15.50
2018-08-09T03:30:02.566Z,16.03
2018-08-09T03:32:32.116Z,15.13
2018-08-09T03:35:01.617Z,13.83
2018-08-09T03:37:31.171Z,14.20
2018-08-09T03:40:00.715Z,15.73
2018-08-09T03:42:30.276Z,16.37
2018-08-09T03:44:59.848Z,15.63
2018-08-09T03:47:29.369Z,15.17
2018-08-09T03:49:58.888Z,16.40
2018-08-09T03:52:28.400Z,16.83
2018-08-09T03:54:57.928Z,16.30
2018-08-09T03:57:27.441Z,18.13
2018-08-09T03:59:56.988Z,18.80
2018-08-09T04:02:26.533Z,17.30
2018-08-09T04:04:56.056Z,17.43
2018-08-09T04:07:25.658Z,18.33
2018-08-09T04:09:55.146Z,15.80
2018-08-09T04:12:25.147Z,17.07
2018-08-09T04:14:54.671Z,18.43
2018-08-09T04:17:24.243Z,17.60
2018-08-09T04:19:53.754Z,18.33
2018-08-09T04:22:23.503Z,16.50
2018-08-09T04:24:53.041Z,17.67
2018-08-09T04:27:22.564Z,17.77
2018-08-09T04:29:52.132Z,16.40
2018-08-09T04:32:21.652Z,19.00
2018-08-09T04:34:51.212Z,17.33
2018-08-09T04:37:20.760Z,17.30
2018-08-09T04:39:50.279Z,16.60
2018-08-09T04:42:19.821Z,19.20
2018-08-09T04:44:49.345Z,16.37
2018-08-09T04:47:18.939Z,17.80
2018-08-09T04:49:48.468Z,15.90
2018-08-09T04:52:18.011Z,18.17
2018-08-09T04:54:47.606Z,17.17
2018-08-09T04:57:17.188Z,16.27
2018-08-09T04:59:46.754Z,18.30
2018-08-09T05:02:16.282Z,16.73
2018-08-09T05:04:45.896Z,16.47
2018-08-09T05:07:15.403Z,15.67
2018-08-09T05:09:44.992Z,17.23
2018-08-09T05:12:14.556Z,15.67
2018-08-09T05:14:44.132Z,15.43
2018-08-09T05:17:13.650Z,15.80
2018-08-09T05:19:43.190Z,15.50
2018-08-09T05:22:12.781Z,16.40
2018-08-09T05:24:42.312Z,15.07
2018-08-09T05:27:11.863Z,18.83
2018-08-09T05:29:41.471Z,17.47
2018-08-09T05:32:11.105Z,17.50
2018-08-09T05:34:40.719Z,17.23
2018-08-09T05:37:10.758Z,17.57
2018-08-09T05:39:40.327Z,16.30
2018-08-09T05:42:10.349Z,15.47
2018-08-09T05:44:39.933Z,17.93
2018-08-09T05:47:09.527Z,16.53
2018-08-09T05:49:39.182Z,17.40
2018-08-09T05:52:08.737Z,17.87
2018-08-09T05:54:38.276Z,16.70
2018-08-09T05:57:07.828Z,16.37
2018-08-09T05:59:37.429Z,17.10
2018-08-09T06:02:07.080Z,17.40
2018-08-09T06:04:36.645Z,18.63
2018-08-09T06:07:06.191Z,17.00
2018-08-09T06:09:35.751Z,17.53
2018-08-09T06:12:05.464Z,17.20
2018-08-09T06:14:35.001Z,16.43
2018-08-09T06:17:04.610Z,17.50
2018-08-09T06:19:34.132Z,17.67
2018-08-09T06:22:03.704Z,16.93
2018-08-09T06:24:33.262Z,17.83
2018-08-09T06:27:02.864Z,17.80
2018-08-09T06:29:32.433Z,18.27
2018-08-09T06:32:02.047Z,15.87
2018-08-09T06:34:31.615Z,16.23
2018-08-09T06:37:01.258Z,14.50
2018-08-09T06:39:30.810Z,17.27
2018-08-09T06:42:00.358Z,15.03
2018-08-09T06:44:29.887Z,16.90
2018-08-09T06:46:59.487Z,15.93
2018-08-09T06:49:29.009Z,16.13
2018-08-09T06:51:58.640Z,16.03
2018-08-09T06:54:28.234Z,16.53
2018-08-09T06:56:57.957Z,16.40
2018-08-09T06:59:27.515Z,12.90
2018-08-09T07:01:57.055Z,15.57
2018-08-09T07:04:26.620Z,14.67
2018-08-09T07:06:56.231Z,14.47
2018-08-09T07:09:26.178Z,13.23
2018-08-09T07:11:55.711Z,11.70
2018-08-09T07:14:25.244Z,13.57
2018-08-09T07:16:54.795Z,12.07
2018-08-09T07:19:24.323Z,12.37
2018-08-09T07:21:53.877Z,12.30
2018-08-09T07:24:23.426Z,11.87
2018-08-09T07:26:52.935Z,11.20
2018-08-09T07:29:22.621Z,10.93
2018-08-09T07:31:52.209Z,11.70
2018-08-09T07:34:21.746Z,11.97
2018-08-09T07:36:51.380Z,10.87
2018-08-09T07:39:20.983Z,10.07
2018-08-09T07:41:50.468Z,11.03
2018-08-09T07:44:20.067Z,10.80
2018-08-09T07:46:49.633Z,10.17
2018-08-09T07:49:19.163Z,9.23
2018-08-09T07:51:48.727Z,9.70
2018-08-09T07:54:18.308Z,9.27
2018-08-09T07:56:48.107Z,9.53
2018-08-09T07:59:17.658Z,9.77
2018-08-09T08:01:47.219Z,9.80
2018-08-09T08:04:16.801Z,9.60
2018-08-09T08:06:46.348Z,9.17
2018-08-09T08:09:15.937Z,8.30
2018-08-09T08:11:45.479Z,9.47
2018-08-09T08:14:15.055Z,9.43
2018-08-09T08:16:44.723Z,8.80
2018-08-09T08:19:14.272Z,7.87
2018-08-09T08:21:43.824Z,8.93
2018-08-09T08:24:13.371Z,8.57
2018-08-09T08:26:42.994Z,8.83
2018-08-09T08:29:12.503Z,8.80
2018-08-09T08:31:42.189Z,9.73
2018-08-09T08:34:11.697Z,9.23
2018-08-09T08:36:41.258Z,9.70
2018-08-09T08:39:11.316Z,9.47
2018-08-09T08:41:40.962Z,8.33
2018-08-09T08:44:10.468Z,9.20
2018-08-09T08:46:40.098Z,7.10
2018-08-09T08:49:09.647Z,8.17
2018-08-09T08:51:39.323Z,8.63
2018-08-09T08:54:08.880Z,10.70
2018-08-09T08:56:38.944Z,12.67
2018-08-09T08:59:08.547Z,13.40
2018-08-09T09:01:38.456Z,15.63
2018-08-09T09:04:08.055Z,16.10
2018-08-09T09:06:37.661Z,16.47
2018-08-09T09:09:09.853Z,17.77
2018-08-09T09:11:39.506Z,17.10
2018-08-09T09:14:09.154Z,19.33
2018-08-09T09:16:38.751Z,19.27
2018-08-09T09:19:08.651Z,21.00
2018-08-09T09:21:39.341Z,21.97
2018-08-09T09:24:09.127Z,19.67
2018-08-09T09:26:38.807Z,22.57
2018-08-09T09:29:08.363Z,24.97
2018-08-09T09:31:38.034Z,24.13
2018-08-09T09:34:08.777Z,26.47
2018-08-09T09:36:38.344Z,25.17
2018-08-09T09:39:09.497Z,26.13
2018-08-09T09:41:39.572Z,24.07
2018-08-09T09:44:09.377Z,28.53
2018-08-09T09:46:39.199Z,28.30
2018-08-09T09:49:09.100Z,29.77
2018-08-09T09:51:38.815Z,29.80
2018-08-09T09:54:08.672Z,28.50
2018-08-09T09:56:38.281Z,27.60
2018-08-09T09:59:07.841Z,26.50
2018-08-09T10:01:41.765Z,23.80
2018-08-09T10:04:11.353Z,23.67
2018-08-09T10:06:40.961Z,25.57
2018-08-09T10:09:11.946Z,24.83
2018-08-09T10:11:42.623Z,20.97
2018-08-09T10:14:12.526Z,22.27
2018-08-09T10:19:35.716Z,24.87
2018-08-09T10:22:05.530Z,21.83
2018-08-09T10:24:35.074Z,20.53
2018-08-09T10:27:05.452Z,20.53
2018-08-09T10:29:35.068Z,19.23
2018-08-09T10:32:04.674Z,21.17
2018-08-09T10:34:34.239Z,21.47
2018-08-09T10:37:03.800Z,20.73
2018-08-09T10:39:33.432Z,22.07
2018-08-09T10:42:02.970Z,20.00
2018-08-09T10:44:32.864Z,18.87
2018-08-09T10:47:02.667Z,19.63
2018-08-09T10:49:32.486Z,19.20
2018-08-09T10:52:02.146Z,19.33
2018-08-09T10:54:32.405Z,18.57
2018-08-09T10:57:02.684Z,16.63
2018-08-09T10:59:33.344Z,18.27
2018-08-09T11:02:03.377Z,16.30
2018-08-09T11:04:33.093Z,17.87
2018-08-09T11:07:02.848Z,16.17
2018-08-09T11:09:32.438Z,15.43
2018-08-09T11:12:02.032Z,14.87
2018-08-09T11:14:31.625Z,14.80
2018-08-09T11:17:01.269Z,13.73
2018-08-09T11:19:30.949Z,13.37
2018-08-09T11:22:00.540Z,13.07
2018-08-09T11:24:30.560Z,13.63
2018-08-09T11:27:00.118Z,13.50
2018-08-09T11:29:30.282Z,13.43
2018-08-09T11:32:01.087Z,12.83
2018-08-09T11:34:34.439Z,13.80
2018-08-09T11:37:04.037Z,11.97
2018-08-09T11:39:33.622Z,12.93
2018-08-09T11:42:03.214Z,12.50
2018-08-09T11:44:33.377Z,13.72
2018-08-09T11:47:07.506Z,12.28
2018-08-09T11:49:41.630Z,12.93
2018-08-09T11:52:15.310Z,13.53
2018-08-09T11:54:50.338Z,12.80
2018-08-09T11:57:19.977Z,11.50
2018-08-09T11:59:49.460Z,13.97
2018-08-09T12:02:19.242Z,12.78
2018-08-09T12:04:48.965Z,12.55
2018-08-09T12:07:20.414Z,12.80
2018-08-09T12:09:50.390Z,11.50
2018-08-09T12:12:21.068Z,11.40
2018-08-09T12:14:50.730Z,11.97
2018-08-09T12:17:20.309Z,11.50
2018-08-09T12:19:50.559Z,11.05
2018-08-09T12:22:21.932Z,9.08
2018-08-09T12:24:53.061Z,8.70
2018-08-09T12:27:22.708Z,9.23
2018-08-09T12:29:52.781Z,8.93
2018-08-09T12:32:22.399Z,8.30
2018-08-09T12:34:52.063Z,7.87
2018-08-09T12:37:21.592Z,8.53
2018-08-09T12:39:51.279Z,8.13
2018-08-09T12:42:20.882Z,8.00
2018-08-09T12:44:50.482Z,7.75
2018-08-09T12:47:20.135Z,8.45
2018-08-09T12:49:49.960Z,7.80
2018-08-09T12:52:19.590Z,8.58
2018-08-09T12:54:49.144Z,8.10
2018-08-09T12:57:18.824Z,8.33
2018-08-09T12:59:48.461Z,7.65
2018-08-09T13:02:18.092Z,7.40
2018-08-09T13:04:47.669Z,7.53
2018-08-09T13:07:17.437Z,7.50
2018-08-09T13:09:47.043Z,7.70
2018-08-09T13:12:16.650Z,7.12
2018-08-09T13:14:46.283Z,7.53
2018-08-09T13:17:15.857Z,7.60
2018-08-09T13:19:46.688Z,7.37
2018-08-09T13:22:17.100Z,7.35
2018-08-09T13:24:46.868Z,8.15
2018-08-09T13:27:16.452Z,6.92
2018-08-09T13:29:46.048Z,7.78
2018-08-09T13:32:16.054Z,7.40
2018-08-09T13:34:47.684Z,7.10
2018-08-09T13:37:17.224Z,7.97
2018-08-09T13:39:48.172Z,7.08
2018-08-09T13:42:18.614Z,7.62
2018-08-09T13:44:48.320Z,8.85
2018-08-09T13:47:19.275Z,18.67
2018-08-09T13:49:48.935Z,7.37
2018-08-09T13:52:18.457Z,7.20
2018-08-09T13:54:48.075Z,7.55
2018-08-09T13:57:21.757Z,7.95
2018-08-09T13:59:54.528Z,7.67
2018-08-09T14:02:24.994Z,7.90
2018-08-09T14:04:54.634Z,7.67
2018-08-09T14:07:24.321Z,7.45
2018-08-09T14:09:54.151Z,7.65
2018-08-09T14:12:23.926Z,7.90
2018-08-09T14:14:53.635Z,7.58
2018-08-09T14:17:23.255Z,7.65
2018-08-09T14:19:52.853Z,7.95
2018-08-09T14:22:22.481Z,7.58
2018-08-09T14:24:52.124Z,7.75
2018-08-09T14:27:22.114Z,7.67
2018-08-09T14:29:52.266Z,7.28
2018-08-09T14:32:22.449Z,7.50
2018-08-09T14:34:52.984Z,7.62
2018-08-09T14:37:22.619Z,7.62
2018-08-09T14:39:52.729Z,7.47
2018-08-09T14:42:22.284Z,7.33
2018-08-09T14:44:52.210Z,7.67
2018-08-09T14:47:21.829Z,7.55
2018-08-09T14:49:51.459Z,7.58
2018-08-09T14:52:21.093Z,7.55
2018-08-09T14:54:50.767Z,7.15
2018-08-09T14:57:20.385Z,7.45
2018-08-09T14:59:50.077Z,7.22
2018-08-09T15:02:20.096Z,7.12
2018-08-09T15:04:49.695Z,7.65
2018-08-09T15:07:19.242Z,7.75
2018-08-09T15:09:48.819Z,7.50
2018-08-09T15:12:18.478Z,7.30
2018-08-09T15:14:48.090Z,6.67
2018-08-09T15:17:17.759Z,6.95
2018-08-09T15:19:47.437Z,6.87
2018-08-09T15:22:17.081Z,6.78
2018-08-09T15:24:46.679Z,6.62
2018-08-09T15:27:16.354Z,6.30
2018-08-09T15:29:47.260Z,5.87
2018-08-09T15:32:23.413Z,5.50
2018-08-09T15:34:52.962Z,5.15
2018-08-09T15:37:22.624Z,5.17
2018-08-09T15:42:37.695Z,4.97
2018-08-09T15:45:12.784Z,5.17
2018-08-09T15:47:47.017Z,4.77
2018-08-09T15:50:22.424Z,4.30
2018-08-09T15:52:57.564Z,5.40
2018-08-09T15:55:31.879Z,5.37
2018-08-09T15:58:06.844Z,5.23
2018-08-09T16:00:38.070Z,4.50
2018-08-09T16:03:09.779Z,4.23
2018-08-09T16:05:39.608Z,4.07
2018-08-09T16:08:09.539Z,3.87
2018-08-09T16:10:39.310Z,3.90
2018-08-09T16:13:09.178Z,4.33
2018-08-09T16:15:39.838Z,4.47
2018-08-09T16:18:12.380Z,3.60
2018-08-09T16:20:43.996Z,3.67
2018-08-09T16:23:13.851Z,3.87
2018-08-09T16:25:43.632Z,3.53
2018-08-09T16:28:13.412Z,3.87
2018-08-09T16:30:43.167Z,3.40
2018-08-09T16:33:13.061Z,3.93
2018-08-09T16:35:42.896Z,3.87
2018-08-09T16:38:12.690Z,3.50
2018-08-09T16:40:42.407Z,3.67
2018-08-09T16:43:12.657Z,3.90
2018-08-09T16:45:42.368Z,3.87
2018-08-09T16:48:12.188Z,3.90
2018-08-09T16:50:43.569Z,4.00
2018-08-09T16:53:13.346Z,4.17
2018-08-09T16:55:43.147Z,4.03
2018-08-09T16:58:12.853Z,4.27
2018-08-09T17:00:42.617Z,4.10
2018-08-09T17:03:12.390Z,3.80
2018-08-09T17:05:42.077Z,3.70
2018-08-09T17:08:11.676Z,3.90
2018-08-09T17:10:41.453Z,3.77
2018-08-09T17:13:11.086Z,4.13
2018-08-09T17:15:40.812Z,4.13
2018-08-09T17:18:10.826Z,3.13
2018-08-09T17:20:40.652Z,3.17
2018-08-09T17:23:10.750Z,3.97
2018-08-09T17:25:40.552Z,4.00
2018-08-09T17:28:10.228Z,3.50
2018-08-09T17:30:39.962Z,4.00
2018-08-09T17:33:10.454Z,3.27
2018-08-09T17:35:40.129Z,3.07
2018-08-09T17:38:10.072Z,3.57
2018-08-09T17:40:40.496Z,3.40
2018-08-09T17:43:10.072Z,3.27
2018-08-09T17:45:40.507Z,3.20
2018-08-09T17:48:10.663Z,3.03
2018-08-09T17:50:40.573Z,2.90
2018-08-09T17:53:10.256Z,2.97
2018-08-09T17:55:39.993Z,2.83
2018-08-09T17:58:10.425Z,3.33
2018-08-09T18:00:40.196Z,3.27
2018-08-09T18:03:10.197Z,2.87
2018-08-09T18:05:40.012Z,2.70
2018-08-09T18:08:09.915Z,3.00
2018-08-09T18:10:39.631Z,2.70
2018-08-09T18:13:09.325Z,2.70
2018-08-09T18:15:39.430Z,2.77
2018-08-09T18:18:09.133Z,2.97
2018-08-09T18:20:39.468Z,2.80
2018-08-09T18:23:09.288Z,2.77
2018-08-09T18:25:39.151Z,3.10
2018-08-09T18:28:10.330Z,3.20
2018-08-09T18:30:40.681Z,2.80
2018-08-09T18:33:10.840Z,3.20
2018-08-09T18:35:40.720Z,3.07
2018-08-09T18:38:10.917Z,3.30
2018-08-09T18:40:40.657Z,3.40
2018-08-09T18:43:10.496Z,3.30
2018-08-09T18:45:40.211Z,2.83
2018-08-09T18:48:09.952Z,2.90
2018-08-09T18:50:39.692Z,3.30
2018-08-09T18:53:09.727Z,2.80
2018-08-09T18:55:39.361Z,3.30
2018-08-09T18:58:08.999Z,2.83
2018-08-09T19:00:38.818Z,2.90
2018-08-09T19:03:09.738Z,3.17
2018-08-09T19:05:39.396Z,2.87
2018-08-09T19:08:09.054Z,2.90
2018-08-09T19:10:38.667Z,3.20
2018-08-09T19:13:08.232Z,3.37
2018-08-09T19:15:38.277Z,3.30
2018-08-09T19:18:08.339Z,3.30
2018-08-09T19:20:37.988Z,3.27
2018-08-09T19:23:07.579Z,3.10
2018-08-09T19:25:37.144Z,3.00
2018-08-09T19:28:06.904Z,3.70
2018-08-09T19:30:36.605Z,3.17
2018-08-09T19:33:07.288Z,3.23
2018-08-09T19:35:36.907Z,3.00
2018-08-09T19:38:06.744Z,3.43
2018-08-09T19:40:36.423Z,3.00
2018-08-09T19:43:06.010Z,3.40
2018-08-09T19:45:35.654Z,3.23
2018-08-09T19:48:05.240Z,2.97
2018-08-09T19:50:34.894Z,3.10
2018-08-09T19:53:04.565Z,3.20
2018-08-09T19:55:34.243Z,2.47
2018-08-09T19:58:03.876Z,2.90
2018-08-09T20:00:33.571Z,3.23
2018-08-09T20:03:03.183Z,3.30
2018-08-09T20:05:32.858Z,2.80
2018-08-09T20:08:02.512Z,3.03
2018-08-09T20:10:32.104Z,2.53
2018-08-09T20:13:01.725Z,2.73
2018-08-09T20:15:31.307Z,2.87
2018-08-09T20:18:01.038Z,2.90
2018-08-09T20:20:30.747Z,2.90
2018-08-09T20:23:00.319Z,2.90
2018-08-09T20:25:29.861Z,2.77
2018-08-09T20:34:39.918Z,2.77
2018-08-09T20:37:14.357Z,2.90
2018-08-09T20:39:44.660Z,3.10
2018-08-09T20:42:16.759Z,2.73
2018-08-09T20:44:48.041Z,3.03
2018-08-09T20:47:18.890Z,2.63
2018-08-09T20:49:51.702Z,2.40
2018-08-09T20:52:22.714Z,3.27
2018-08-09T20:54:52.696Z,2.53
2018-08-09T20:57:23.196Z,2.40
2018-08-09T20:59:52.878Z,3.23
2018-08-09T21:02:23.020Z,2.50
2018-08-09T21:04:55.887Z,2.60
2018-08-09T21:07:25.484Z,3.00
2018-08-09T21:09:56.083Z,2.70
2018-08-09T21:12:25.694Z,2.53
2018-08-09T21:14:55.737Z,2.70
2018-08-09T21:17:25.324Z,2.77
2018-08-09T21:19:55.936Z,3.80
2018-08-09T21:22:25.642Z,3.93
2018-08-09T21:24:58.338Z,4.30
2018-08-09T21:27:27.954Z,5.40
2018-08-09T21:29:57.612Z,4.90
2018-08-09T21:32:27.336Z,5.83
2018-08-09T21:34:56.891Z,5.07
2018-08-09T21:37:26.526Z,5.33
2018-08-09T21:39:56.070Z,5.00
2018-08-09T21:42:29.506Z,4.73
2018-08-09T21:45:19.576Z,4.27
2018-08-09T21:47:57.508Z,4.10
2018-08-09T21:50:27.272Z,3.60
2018-08-09T21:52:57.059Z,4.20
2018-08-09T21:55:29.758Z,4.23
2018-08-09T21:57:59.426Z,3.83
2018-08-09T22:00:57.038Z,3.90
2018-08-09T22:03:28.869Z,3.30
2018-08-09T22:06:04.403Z,3.20
2018-08-09T22:08:39.274Z,3.30
2018-08-09T22:11:16.017Z,2.93
2018-08-09T22:13:50.939Z,2.60
2018-08-09T22:16:25.845Z,2.97
2018-08-09T22:19:00.646Z,2.33
2018-08-09T22:21:35.536Z,2.30
2018-08-09T22:24:05.142Z,2.20
2018-08-09T22:26:35.863Z,2.20
2018-08-09T22:29:06.689Z,2.23
2018-08-09T22:31:37.213Z,2.37
2018-08-09T22:34:06.927Z,2.50
2018-08-09T22:36:37.831Z,2.40
2018-08-09T22:39:12.324Z,2.80
2018-08-09T22:41:44.224Z,2.20
2018-08-09T22:44:15.094Z,2.43
2018-08-09T22:46:51.082Z,2.47
2018-08-09T22:49:20.806Z,2.40
2018-08-09T22:51:50.451Z,2.50
2018-08-09T22:54:20.242Z,2.60
2018-08-09T22:56:53.925Z,2.40
2018-08-09T22:59:28.232Z,2.50
2018-08-09T23:01:58.576Z,2.60
2018-08-09T23:04:28.467Z,2.43
2018-08-09T23:06:58.313Z,2.47
2018-08-09T23:09:30.927Z,2.70
2018-08-09T23:12:01.228Z,2.47
2018-08-09T23:14:31.254Z,2.20
2018-08-09T23:17:00.900Z,2.30
2018-08-09T23:19:30.810Z,2.50
2018-08-09T23:22:00.541Z,2.30
2018-08-09T23:24:30.703Z,2.13
2018-08-09T23:27:01.171Z,1.90
2018-08-09T23:29:30.765Z,1.60
2018-08-09T23:32:01.141Z,1.50
2018-08-09T23:34:30.805Z,1.67
2018-08-09T23:37:00.383Z,1.50
2018-08-09T23:39:30.011Z,1.60
2018-08-09T23:42:00.978Z,1.70
2018-08-09T23:44:30.637Z,1.70
2018-08-09T23:47:00.205Z,1.80
2018-08-09T23:49:29.926Z,1.80
2018-08-09T23:51:59.709Z,1.83
2018-08-09T23:54:29.302Z,1.63
2018-08-09T23:56:59.382Z,1.73
2018-08-09T23:59:28.958Z,1.77
